sensor_id;sensor_type;location;lat;lon;timestamp;temperature;humidity
17918;DHT22;9084;50.956;3.106;2024-03-23T00:55:13;8.50;99.90
17918;DHT22;9084;50.956;3.106;2024-03-23T00:57:39;8.50;99.90
17918;DHT22;9084;50.956;3.106;2024-03-23T01:00:05;8.50;99.90
17918;DHT22;9084;50.956;3.106;2024-03-23T01:02:34;8.50;99.90
17918;DHT22;9084;50.956;3.106;2024-03-23T01:04:59;8.50;99.90
17918;DHT22;9084;50.956;3.106;2024-03-23T01:07:27;8.60;99.90
17918;DHT22;9084;50.956;3.106;2024-03-23T01:09:52;8.50;99.90
17918;DHT22;9084;50.956;3.106;2024-03-23T01:12:18;8.50;99.90
17918;DHT22;9084;50.956;3.106;2024-03-23T01:14:44;8.40;99.90
17918;DHT22;9084;50.956;3.106;2024-03-23T01:17:12;8.50;99.90
17918;DHT22;9084;50.956;3.106;2024-03-23T01:19:39;8.50;99.90
17918;DHT22;9084;50.956;3.106;2024-03-23T01:22:07;8.50;99.90
17918;DHT22;9084;50.956;3.106;2024-03-23T01:24:32;8.40;99.90
17918;DHT22;9084;50.956;3.106;2024-03-23T01:26:58;8.40;99.90
17918;DHT22;9084;50.956;3.106;2024-03-23T01:29:28;8.40;99.90
17918;DHT22;9084;50.956;3.106;2024-03-23T01:31:54;8.50;99.90
17918;DHT22;9084;50.956;3.106;2024-03-23T01:34:19;8.50;99.90
17918;DHT22;9084;50.956;3.106;2024-03-23T01:36:46;8.40;99.90
17918;DHT22;9084;50.956;3.106;2024-03-23T01:39:12;8.40;99.90
17918;DHT22;9084;50.956;3.106;2024-03-23T01:41:41;8.50;99.90
17918;DHT22;9084;50.956;3.106;2024-03-23T01:44:09;8.40;99.90
17918;DHT22;9084;50.956;3.106;2024-03-23T01:46:38;8.40;99.90
17918;DHT22;9084;50.956;3.106;2024-03-23T01:49:08;8.40;99.90
17918;DHT22;9084;50.956;3.106;2024-03-23T01:51:34;8.40;99.90
17918;DHT22;9084;50.956;3.106;2024-03-23T01:54:02;8.30;99.90
17918;DHT22;9084;50.956;3.106;2024-03-23T01:56:32;8.30;99.90
17918;DHT22;9084;50.956;3.106;2024-03-23T01:59:02;8.30;99.90
17918;DHT22;9084;50.956;3.106;2024-03-23T02:01:31;8.30;99.90
17918;DHT22;9084;50.956;3.106;2024-03-23T02:03:58;8.20;99.90
17918;DHT22;9084;50.956;3.106;2024-03-23T02:06:24;8.20;99.90
17918;DHT22;9084;50.956;3.106;2024-03-23T02:08:51;8.10;99.90
17918;DHT22;9084;50.956;3.106;2024-03-23T02:11:16;8.10;99.90
17918;DHT22;9084;50.956;3.106;2024-03-23T02:13:42;8.00;99.90
17918;DHT22;9084;50.956;3.106;2024-03-23T02:16:08;8.00;99.90
17918;DHT22;9084;50.956;3.106;2024-03-23T02:18:34;7.90;99.90
17918;DHT22;9084;50.956;3.106;2024-03-23T02:21:02;7.90;99.90
17918;DHT22;9084;50.956;3.106;2024-03-23T02:23:28;7.80;99.90
17918;DHT22;9084;50.956;3.106;2024-03-23T02:25:55;7.70;99.90
17918;DHT22;9084;50.956;3.106;2024-03-23T02:28:21;7.70;99.90
17918;DHT22;9084;50.956;3.106;2024-03-23T02:30:49;7.70;99.90
17918;DHT22;9084;50.956;3.106;2024-03-23T02:33:14;7.70;99.90
17918;DHT22;9084;50.956;3.106;2024-03-23T02:35:40;7.70;99.90
17918;DHT22;9084;50.956;3.106;2024-03-23T02:38:06;7.80;99.90
17918;DHT22;9084;50.956;3.106;2024-03-23T02:40:31;7.80;99.90
17918;DHT22;9084;50.956;3.106;2024-03-23T02:42:57;7.80;99.90
17918;DHT22;9084;50.956;3.106;2024-03-23T02:45:22;7.80;99.90
17918;DHT22;9084;50.956;3.106;2024-03-23T02:47:48;7.80;99.90
17918;DHT22;9084;50.956;3.106;2024-03-23T02:50:20;7.70;99.90
17918;DHT22;9084;50.956;3.106;2024-03-23T02:52:46;7.70;99.90
17918;DHT22;9084;50.956;3.106;2024-03-23T02:55:12;7.60;99.90
17918;DHT22;9084;50.956;3.106;2024-03-23T02:57:41;7.40;99.90
17918;DHT22;9084;50.956;3.106;2024-03-23T03:00:07;7.40;99.90
17918;DHT22;9084;50.956;3.106;2024-03-23T03:02:33;7.30;99.90
17918;DHT22;9084;50.956;3.106;2024-03-23T03:04:59;7.20;99.90
17918;DHT22;9084;50.956;3.106;2024-03-23T03:07:25;7.20;99.90
17918;DHT22;9084;50.956;3.106;2024-03-23T03:09:51;7.20;99.90
17918;DHT22;9084;50.956;3.106;2024-03-23T03:12:16;7.10;99.90
17918;DHT22;9084;50.956;3.106;2024-03-23T03:14:42;7.10;99.90
17918;DHT22;9084;50.956;3.106;2024-03-23T03:17:08;7.10;99.90
17918;DHT22;9084;50.956;3.106;2024-03-23T03:19:34;7.10;99.90
17918;DHT22;9084;50.956;3.106;2024-03-23T03:21:59;7.10;99.90
17918;DHT22;9084;50.956;3.106;2024-03-23T03:24:25;7.10;99.90
17918;DHT22;9084;50.956;3.106;2024-03-23T03:26:50;7.10;99.90
17918;DHT22;9084;50.956;3.106;2024-03-23T03:29:19;7.10;99.90
17918;DHT22;9084;50.956;3.106;2024-03-23T03:31:44;7.20;99.90
17918;DHT22;9084;50.956;3.106;2024-03-23T03:34:10;7.20;99.90
17918;DHT22;9084;50.956;3.106;2024-03-23T03:36:36;7.20;99.90
17918;DHT22;9084;50.956;3.106;2024-03-23T03:39:01;7.30;99.90
17918;DHT22;9084;50.956;3.106;2024-03-23T03:41:32;7.30;99.90
17918;DHT22;9084;50.956;3.106;2024-03-23T03:43:58;7.20;99.90
17918;DHT22;9084;50.956;3.106;2024-03-23T03:46:27;7.20;99.90
17918;DHT22;9084;50.956;3.106;2024-03-23T03:48:54;7.30;99.90
17918;DHT22;9084;50.956;3.106;2024-03-23T03:51:20;7.30;99.90
17918;DHT22;9084;50.956;3.106;2024-03-23T03:53:46;7.20;99.90
17918;DHT22;9084;50.956;3.106;2024-03-23T03:56:12;7.30;99.90
17918;DHT22;9084;50.956;3.106;2024-03-23T03:58:37;7.20;99.90
17918;DHT22;9084;50.956;3.106;2024-03-23T04:01:05;7.10;99.90
17918;DHT22;9084;50.956;3.106;2024-03-23T04:03:31;7.10;99.90
17918;DHT22;9084;50.956;3.106;2024-03-23T04:05:59;7.10;99.90
17918;DHT22;9084;50.956;3.106;2024-03-23T04:08:28;7.10;99.90
17918;DHT22;9084;50.956;3.106;2024-03-23T04:10:54;7.10;99.90
17918;DHT22;9084;50.956;3.106;2024-03-23T04:13:22;7.10;99.90
17918;DHT22;9084;50.956;3.106;2024-03-23T04:15:54;7.10;99.90
17918;DHT22;9084;50.956;3.106;2024-03-23T04:18:22;7.00;99.90
17918;DHT22;9084;50.956;3.106;2024-03-23T04:20:54;7.10;99.90
17918;DHT22;9084;50.956;3.106;2024-03-23T04:23:19;7.10;99.90
17918;DHT22;9084;50.956;3.106;2024-03-23T04:25:46;7.10;99.90
17918;DHT22;9084;50.956;3.106;2024-03-23T04:28:14;7.10;99.90
17918;DHT22;9084;50.956;3.106;2024-03-23T04:30:40;7.10;99.90
17918;DHT22;9084;50.956;3.106;2024-03-23T04:33:05;7.10;99.90
17918;DHT22;9084;50.956;3.106;2024-03-23T04:35:34;7.10;99.90
17918;DHT22;9084;50.956;3.106;2024-03-23T04:38:00;7.10;99.90
17918;DHT22;9084;50.956;3.106;2024-03-23T04:40:28;7.10;99.90
17918;DHT22;9084;50.956;3.106;2024-03-23T04:42:54;7.10;99.90
17918;DHT22;9084;50.956;3.106;2024-03-23T04:45:22;7.10;99.90
17918;DHT22;9084;50.956;3.106;2024-03-23T04:47:47;7.00;99.90
17918;DHT22;9084;50.956;3.106;2024-03-23T04:50:13;7.00;99.90
17918;DHT22;9084;50.956;3.106;2024-03-23T04:52:41;7.00;99.90
17918;DHT22;9084;50.956;3.106;2024-03-23T04:55:07;6.90;99.90
17918;DHT22;9084;50.956;3.106;2024-03-23T04:57:35;6.90;99.90
17918;DHT22;9084;50.956;3.106;2024-03-23T05:00:01;6.90;99.90
17918;DHT22;9084;50.956;3.106;2024-03-23T05:02:26;7.00;99.90
17918;DHT22;9084;50.956;3.106;2024-03-23T05:04:52;7.00;99.90
17918;DHT22;9084;50.956;3.106;2024-03-23T05:07:20;7.00;99.90
17918;DHT22;9084;50.956;3.106;2024-03-23T05:09:46;6.90;99.90
17918;DHT22;9084;50.956;3.106;2024-03-23T05:12:11;7.00;99.90
17918;DHT22;9084;50.956;3.106;2024-03-23T05:14:37;7.00;99.90
17918;DHT22;9084;50.956;3.106;2024-03-23T05:17:02;7.00;99.90
17918;DHT22;9084;50.956;3.106;2024-03-23T05:19:30;6.90;99.90
17918;DHT22;9084;50.956;3.106;2024-03-23T05:21:56;6.90;99.90
17918;DHT22;9084;50.956;3.106;2024-03-23T05:24:21;6.80;99.90
17918;DHT22;9084;50.956;3.106;2024-03-23T05:26:47;6.90;99.90
17918;DHT22;9084;50.956;3.106;2024-03-23T05:29:13;6.80;99.90
17918;DHT22;9084;50.956;3.106;2024-03-23T05:31:38;6.70;99.90
17918;DHT22;9084;50.956;3.106;2024-03-23T05:34:07;6.60;99.90
17918;DHT22;9084;50.956;3.106;2024-03-23T05:36:35;6.50;99.90
17918;DHT22;9084;50.956;3.106;2024-03-23T05:39:01;6.50;99.90
17918;DHT22;9084;50.956;3.106;2024-03-23T05:41:27;6.40;99.90
17918;DHT22;9084;50.956;3.106;2024-03-23T05:43:55;6.50;99.90
17918;DHT22;9084;50.956;3.106;2024-03-23T05:46:20;6.40;99.90
17918;DHT22;9084;50.956;3.106;2024-03-23T05:48:46;6.30;99.90
17918;DHT22;9084;50.956;3.106;2024-03-23T05:51:12;6.30;99.90
17918;DHT22;9084;50.956;3.106;2024-03-23T05:53:38;6.30;99.90
17918;DHT22;9084;50.956;3.106;2024-03-23T05:56:04;6.30;99.90
17918;DHT22;9084;50.956;3.106;2024-03-23T05:58:30;6.30;99.90
17918;DHT22;9084;50.956;3.106;2024-03-23T06:01:02;6.30;99.90
17918;DHT22;9084;50.956;3.106;2024-03-23T06:03:29;6.30;99.90
17918;DHT22;9084;50.956;3.106;2024-03-23T06:05:57;6.30;99.90
17918;DHT22;9084;50.956;3.106;2024-03-23T06:08:23;6.40;99.90
17918;DHT22;9084;50.956;3.106;2024-03-23T06:10:51;6.40;99.90
17918;DHT22;9084;50.956;3.106;2024-03-23T06:13:17;6.50;99.90
17918;DHT22;9084;50.956;3.106;2024-03-23T06:15:43;6.50;99.90
17918;DHT22;9084;50.956;3.106;2024-03-23T06:18:12;6.60;99.90
17918;DHT22;9084;50.956;3.106;2024-03-23T06:20:38;6.50;99.90
17918;DHT22;9084;50.956;3.106;2024-03-23T06:23:03;6.50;99.90
17918;DHT22;9084;50.956;3.106;2024-03-23T06:25:29;6.40;99.90
17918;DHT22;9084;50.956;3.106;2024-03-23T06:27:55;6.40;99.90
17918;DHT22;9084;50.956;3.106;2024-03-23T06:30:23;6.50;99.90
17918;DHT22;9084;50.956;3.106;2024-03-23T06:32:49;6.50;99.90
17918;DHT22;9084;50.956;3.106;2024-03-23T06:35:15;6.50;99.90
17918;DHT22;9084;50.956;3.106;2024-03-23T06:37:42;6.50;99.90
17918;DHT22;9084;50.956;3.106;2024-03-23T06:40:11;6.50;99.90
17918;DHT22;9084;50.956;3.106;2024-03-23T06:42:39;6.60;99.90
17918;DHT22;9084;50.956;3.106;2024-03-23T06:45:05;6.60;99.90
17918;DHT22;9084;50.956;3.106;2024-03-23T06:47:31;6.60;99.90
17918;DHT22;9084;50.956;3.106;2024-03-23T06:50:01;6.70;99.90
17918;DHT22;9084;50.956;3.106;2024-03-23T06:52:27;6.80;99.90
17918;DHT22;9084;50.956;3.106;2024-03-23T06:54:53;6.90;99.90
17918;DHT22;9084;50.956;3.106;2024-03-23T06:57:19;7.00;99.90
17918;DHT22;9084;50.956;3.106;2024-03-23T06:59:44;7.00;99.90
17918;DHT22;9084;50.956;3.106;2024-03-23T07:02:15;7.00;99.90
17918;DHT22;9084;50.956;3.106;2024-03-23T07:04:41;6.90;99.90
17918;DHT22;9084;50.956;3.106;2024-03-23T07:07:07;6.90;99.90
17918;DHT22;9084;50.956;3.106;2024-03-23T07:09:35;6.90;99.90
17918;DHT22;9084;50.956;3.106;2024-03-23T07:12:00;6.90;99.90
17918;DHT22;9084;50.956;3.106;2024-03-23T07:14:26;6.90;99.90
17918;DHT22;9084;50.956;3.106;2024-03-23T07:16:52;7.00;99.90
17918;DHT22;9084;50.956;3.106;2024-03-23T07:19:18;7.00;99.90
17918;DHT22;9084;50.956;3.106;2024-03-23T07:21:44;7.00;99.90
17918;DHT22;9084;50.956;3.106;2024-03-23T07:24:10;7.00;99.90
17918;DHT22;9084;50.956;3.106;2024-03-23T07:26:36;7.10;99.90
17918;DHT22;9084;50.956;3.106;2024-03-23T07:29:03;7.10;99.90
17918;DHT22;9084;50.956;3.106;2024-03-23T07:31:29;7.10;99.90
17918;DHT22;9084;50.956;3.106;2024-03-23T07:33:55;7.20;99.90
17918;DHT22;9084;50.956;3.106;2024-03-23T07:36:20;7.10;99.90
17918;DHT22;9084;50.956;3.106;2024-03-23T07:38:48;7.20;99.90
17918;DHT22;9084;50.956;3.106;2024-03-23T07:41:22;7.30;99.90
17918;DHT22;9084;50.956;3.106;2024-03-23T07:43:48;7.30;99.90
17918;DHT22;9084;50.956;3.106;2024-03-23T07:46:16;7.30;99.90
17918;DHT22;9084;50.956;3.106;2024-03-23T07:48:42;7.40;99.90
17918;DHT22;9084;50.956;3.106;2024-03-23T07:51:18;7.40;99.90
17918;DHT22;9084;50.956;3.106;2024-03-23T07:53:45;7.40;99.90
17918;DHT22;9084;50.956;3.106;2024-03-23T07:56:11;7.50;99.90
17918;DHT22;9084;50.956;3.106;2024-03-23T07:58:38;7.50;99.90
17918;DHT22;9084;50.956;3.106;2024-03-23T08:01:10;7.50;96.50
17918;DHT22;9084;50.956;3.106;2024-03-23T08:03:36;7.50;95.30
17918;DHT22;9084;50.956;3.106;2024-03-23T08:08:44;7.70;79.70
17918;DHT22;9084;50.956;3.106;2024-03-23T08:11:10;7.80;68.00
17918;DHT22;9084;50.956;3.106;2024-03-23T08:13:38;7.80;39.00
17918;DHT22;9084;50.956;3.106;2024-03-23T08:16:07;7.90;37.10
17918;DHT22;9084;50.956;3.106;2024-03-23T08:18:34;7.90;13.60
17918;DHT22;9084;50.956;3.106;2024-03-23T08:21:04;8.00;25.30
17918;DHT22;9084;50.956;3.106;2024-03-23T08:23:31;8.00;31.30
17918;DHT22;9084;50.956;3.106;2024-03-23T08:26:00;8.10;22.70
17918;DHT22;9084;50.956;3.106;2024-03-23T08:28:26;8.20;25.30
17918;DHT22;9084;50.956;3.106;2024-03-23T08:30:55;8.10;1.00
17918;DHT22;9084;50.956;3.106;2024-03-23T08:33:23;8.20;1.00
17918;DHT22;9084;50.956;3.106;2024-03-23T08:35:57;8.20;1.00
17918;DHT22;9084;50.956;3.106;2024-03-23T08:38:27;8.30;1.00
17918;DHT22;9084;50.956;3.106;2024-03-23T08:41:06;8.40;1.00
17918;DHT22;9084;50.956;3.106;2024-03-23T08:43:36;8.50;1.00
17918;DHT22;9084;50.956;3.106;2024-03-23T08:48:40;8.80;1.00
17918;DHT22;9084;50.956;3.106;2024-03-23T08:51:09;9.00;1.00
17918;DHT22;9084;50.956;3.106;2024-03-23T08:53:36;9.20;1.00
17918;DHT22;9084;50.956;3.106;2024-03-23T08:56:02;9.30;1.00
17918;DHT22;9084;50.956;3.106;2024-03-23T08:58:29;9.40;1.00
17918;DHT22;9084;50.956;3.106;2024-03-23T09:01:02;9.50;1.00
17918;DHT22;9084;50.956;3.106;2024-03-23T09:03:28;9.50;1.00
17918;DHT22;9084;50.956;3.106;2024-03-23T09:05:58;9.50;1.00
17918;DHT22;9084;50.956;3.106;2024-03-23T09:08:26;9.50;99.90
17918;DHT22;9084;50.956;3.106;2024-03-23T09:10:55;9.50;99.90
17918;DHT22;9084;50.956;3.106;2024-03-23T09:13:20;9.50;1.00
17918;DHT22;9084;50.956;3.106;2024-03-23T09:15:48;9.60;1.00
17918;DHT22;9084;50.956;3.106;2024-03-23T09:18:17;9.80;1.00
17918;DHT22;9084;50.956;3.106;2024-03-23T09:20:42;9.80;99.90
17918;DHT22;9084;50.956;3.106;2024-03-23T09:23:08;9.80;1.00
17918;DHT22;9084;50.956;3.106;2024-03-23T09:25:42;9.80;99.90
17918;DHT22;9084;50.956;3.106;2024-03-23T09:28:08;10.00;1.00
17918;DHT22;9084;50.956;3.106;2024-03-23T09:30:37;10.20;1.00
17918;DHT22;9084;50.956;3.106;2024-03-23T09:33:08;10.30;1.00
17918;DHT22;9084;50.956;3.106;2024-03-23T09:35:37;10.40;1.00
17918;DHT22;9084;50.956;3.106;2024-03-23T09:38:06;10.50;1.00
17918;DHT22;9084;50.956;3.106;2024-03-23T09:40:41;10.60;1.00
17918;DHT22;9084;50.956;3.106;2024-03-23T09:43:11;10.60;1.00
17918;DHT22;9084;50.956;3.106;2024-03-23T09:45:39;10.60;1.00
17918;DHT22;9084;50.956;3.106;2024-03-23T09:48:09;10.50;1.00
17918;DHT22;9084;50.956;3.106;2024-03-23T09:50:44;10.60;99.90
17918;DHT22;9084;50.956;3.106;2024-03-23T09:53:13;10.80;1.00
17918;DHT22;9084;50.956;3.106;2024-03-23T09:55:41;10.80;99.90
17918;DHT22;9084;50.956;3.106;2024-03-23T09:58:13;10.80;1.00
17918;DHT22;9084;50.956;3.106;2024-03-23T10:00:42;11.00;1.00
17918;DHT22;9084;50.956;3.106;2024-03-23T10:03:08;10.90;1.00
17918;DHT22;9084;50.956;3.106;2024-03-23T10:05:36;11.00;1.00
17918;DHT22;9084;50.956;3.106;2024-03-23T10:08:23;11.10;1.00
17918;DHT22;9084;50.956;3.106;2024-03-23T10:10:48;11.10;99.90
17918;DHT22;9084;50.956;3.106;2024-03-23T10:13:27;10.90;99.90
17918;DHT22;9084;50.956;3.106;2024-03-23T10:15:57;10.70;99.90
17918;DHT22;9084;50.956;3.106;2024-03-23T10:18:26;10.60;99.90
17918;DHT22;9084;50.956;3.106;2024-03-23T10:23:36;10.50;1.00
17918;DHT22;9084;50.956;3.106;2024-03-23T10:26:21;10.40;99.90
17918;DHT22;9084;50.956;3.106;2024-03-23T10:31:35;10.50;1.00
17918;DHT22;9084;50.956;3.106;2024-03-23T10:34:07;10.60;1.00
17918;DHT22;9084;50.956;3.106;2024-03-23T10:36:34;10.70;1.00
17918;DHT22;9084;50.956;3.106;2024-03-23T10:39:01;10.70;99.90
17918;DHT22;9084;50.956;3.106;2024-03-23T10:41:32;10.80;1.00
17918;DHT22;9084;50.956;3.106;2024-03-23T10:44:01;11.00;1.00
17918;DHT22;9084;50.956;3.106;2024-03-23T10:46:31;11.00;1.00
17918;DHT22;9084;50.956;3.106;2024-03-23T10:48:56;10.80;99.90
17918;DHT22;9084;50.956;3.106;2024-03-23T10:51:22;10.60;1.00
17918;DHT22;9084;50.956;3.106;2024-03-23T10:53:47;10.40;1.00
17918;DHT22;9084;50.956;3.106;2024-03-23T10:56:13;10.30;1.00
17918;DHT22;9084;50.956;3.106;2024-03-23T10:58:46;10.40;1.00
17918;DHT22;9084;50.956;3.106;2024-03-23T11:01:13;10.60;1.00
17918;DHT22;9084;50.956;3.106;2024-03-23T11:03:45;10.90;99.90
17918;DHT22;9084;50.956;3.106;2024-03-23T11:06:10;11.10;1.00
17918;DHT22;9084;50.956;3.106;2024-03-23T11:08:56;11.20;1.00
17918;DHT22;9084;50.956;3.106;2024-03-23T11:11:24;11.20;1.00
17918;DHT22;9084;50.956;3.106;2024-03-23T11:13:51;11.30;1.00
17918;DHT22;9084;50.956;3.106;2024-03-23T11:16:27;11.50;1.00
17918;DHT22;9084;50.956;3.106;2024-03-23T11:21:59;11.60;1.00
17918;DHT22;9084;50.956;3.106;2024-03-23T11:24:25;11.40;1.00
17918;DHT22;9084;50.956;3.106;2024-03-23T11:26:53;11.50;1.00
17918;DHT22;9084;50.956;3.106;2024-03-23T11:29:19;11.70;1.00
17918;DHT22;9084;50.956;3.106;2024-03-23T11:31:49;11.90;1.00
17918;DHT22;9084;50.956;3.106;2024-03-23T11:34:15;12.00;1.00
17918;DHT22;9084;50.956;3.106;2024-03-23T11:36:42;12.10;99.90
17918;DHT22;9084;50.956;3.106;2024-03-23T11:39:18;12.20;1.00
17918;DHT22;9084;50.956;3.106;2024-03-23T11:41:52;12.30;99.90
17918;DHT22;9084;50.956;3.106;2024-03-23T11:44:21;12.20;99.90
17918;DHT22;9084;50.956;3.106;2024-03-23T11:46:50;11.80;1.00
17918;DHT22;9084;50.956;3.106;2024-03-23T11:49:24;11.50;1.00
17918;DHT22;9084;50.956;3.106;2024-03-23T11:51:56;11.40;1.00
17918;DHT22;9084;50.956;3.106;2024-03-23T11:54:26;11.40;99.90
17918;DHT22;9084;50.956;3.106;2024-03-23T11:56:58;11.50;1.00
17918;DHT22;9084;50.956;3.106;2024-03-23T11:59:40;11.80;1.00
17918;DHT22;9084;50.956;3.106;2024-03-23T12:02:07;12.10;47.40
17918;DHT22;9084;50.956;3.106;2024-03-23T12:04:33;12.20;99.90
17918;DHT22;9084;50.956;3.106;2024-03-23T12:07:15;12.30;99.90
17918;DHT22;9084;50.956;3.106;2024-03-23T12:09:44;12.40;94.30
17918;DHT22;9084;50.956;3.106;2024-03-23T12:12:14;12.30;92.10
17918;DHT22;9084;50.956;3.106;2024-03-23T12:15:01;12.20;99.90
17918;DHT22;9084;50.956;3.106;2024-03-23T12:17:27;12.10;99.90
17918;DHT22;9084;50.956;3.106;2024-03-23T12:19:53;12.00;99.90
17918;DHT22;9084;50.956;3.106;2024-03-23T12:22:22;11.90;99.90
17918;DHT22;9084;50.956;3.106;2024-03-23T12:24:51;11.80;60.10
17918;DHT22;9084;50.956;3.106;2024-03-23T12:27:19;11.80;42.50
17918;DHT22;9084;50.956;3.106;2024-03-23T12:29:45;11.70;99.90
17918;DHT22;9084;50.956;3.106;2024-03-23T12:32:14;11.60;99.90
17918;DHT22;9084;50.956;3.106;2024-03-23T12:34:40;11.50;99.90
17918;DHT22;9084;50.956;3.106;2024-03-23T12:37:06;11.50;99.90
17918;DHT22;9084;50.956;3.106;2024-03-23T12:39:32;11.50;1.00
17918;DHT22;9084;50.956;3.106;2024-03-23T12:41:58;11.60;99.90
17918;DHT22;9084;50.956;3.106;2024-03-23T12:44:23;11.80;1.00
17918;DHT22;9084;50.956;3.106;2024-03-23T12:46:49;11.90;1.00
17918;DHT22;9084;50.956;3.106;2024-03-23T12:49:19;11.90;1.00
17918;DHT22;9084;50.956;3.106;2024-03-23T12:52:03;11.80;1.00
17918;DHT22;9084;50.956;3.106;2024-03-23T12:54:30;11.90;1.00
17918;DHT22;9084;50.956;3.106;2024-03-23T12:56:56;11.90;99.90
17918;DHT22;9084;50.956;3.106;2024-03-23T12:59:22;12.00;1.00
17918;DHT22;9084;50.956;3.106;2024-03-23T13:01:48;12.00;99.90
17918;DHT22;9084;50.956;3.106;2024-03-23T13:04:13;11.90;99.90
17918;DHT22;9084;50.956;3.106;2024-03-23T13:06:42;11.70;50.00
17918;DHT22;9084;50.956;3.106;2024-03-23T13:09:07;11.50;99.90
17918;DHT22;9084;50.956;3.106;2024-03-23T13:11:33;11.50;99.90
17918;DHT22;9084;50.956;3.106;2024-03-23T13:13:59;11.60;1.00
17918;DHT22;9084;50.956;3.106;2024-03-23T13:16:27;11.80;1.00
17918;DHT22;9084;50.956;3.106;2024-03-23T13:18:53;11.90;99.90
17918;DHT22;9084;50.956;3.106;2024-03-23T13:21:21;11.90;99.90
17918;DHT22;9084;50.956;3.106;2024-03-23T13:23:47;11.70;99.90
17918;DHT22;9084;50.956;3.106;2024-03-23T13:26:13;11.50;99.90
17918;DHT22;9084;50.956;3.106;2024-03-23T13:28:39;11.30;1.00
17918;DHT22;9084;50.956;3.106;2024-03-23T13:31:10;11.10;99.90
17918;DHT22;9084;50.956;3.106;2024-03-23T13:33:37;11.00;99.90
17918;DHT22;9084;50.956;3.106;2024-03-23T13:36:03;10.90;1.00
17918;DHT22;9084;50.956;3.106;2024-03-23T13:38:32;10.90;99.90
17918;DHT22;9084;50.956;3.106;2024-03-23T13:41:02;10.90;1.00
17918;DHT22;9084;50.956;3.106;2024-03-23T13:43:32;10.80;99.90
17918;DHT22;9084;50.956;3.106;2024-03-23T13:46:00;10.80;1.00
17918;DHT22;9084;50.956;3.106;2024-03-23T13:48:27;10.50;99.90
17918;DHT22;9084;50.956;3.106;2024-03-23T13:51:04;10.30;99.90
17918;DHT22;9084;50.956;3.106;2024-03-23T13:53:31;10.30;1.00
17918;DHT22;9084;50.956;3.106;2024-03-23T13:55:59;10.20;99.90
17918;DHT22;9084;50.956;3.106;2024-03-23T13:58:25;10.10;1.00
17918;DHT22;9084;50.956;3.106;2024-03-23T14:00:51;10.10;99.90
17918;DHT22;9084;50.956;3.106;2024-03-23T14:03:19;10.20;1.00
17918;DHT22;9084;50.956;3.106;2024-03-23T14:05:45;10.40;1.00
17918;DHT22;9084;50.956;3.106;2024-03-23T14:08:12;10.60;1.00
17918;DHT22;9084;50.956;3.106;2024-03-23T14:10:41;10.80;99.90
17918;DHT22;9084;50.956;3.106;2024-03-23T14:13:09;11.10;1.00
17918;DHT22;9084;50.956;3.106;2024-03-23T14:15:35;11.40;1.00
17918;DHT22;9084;50.956;3.106;2024-03-23T14:18:04;11.40;1.00
17918;DHT22;9084;50.956;3.106;2024-03-23T14:20:30;11.40;99.90
17918;DHT22;9084;50.956;3.106;2024-03-23T14:22:58;11.20;20.30
17918;DHT22;9084;50.956;3.106;2024-03-23T14:25:23;11.20;99.90
17918;DHT22;9084;50.956;3.106;2024-03-23T14:27:52;11.20;99.90
17918;DHT22;9084;50.956;3.106;2024-03-23T14:30:20;11.20;1.00
17918;DHT22;9084;50.956;3.106;2024-03-23T14:32:46;11.30;1.00
17918;DHT22;9084;50.956;3.106;2024-03-23T14:35:11;11.30;1.00
17918;DHT22;9084;50.956;3.106;2024-03-23T14:37:37;11.30;1.00
17918;DHT22;9084;50.956;3.106;2024-03-23T14:40:04;11.30;1.00
17918;DHT22;9084;50.956;3.106;2024-03-23T14:42:32;11.30;1.00
17918;DHT22;9084;50.956;3.106;2024-03-23T14:44:58;11.30;1.00
17918;DHT22;9084;50.956;3.106;2024-03-23T14:47:23;11.30;1.00
17918;DHT22;9084;50.956;3.106;2024-03-23T14:49:51;11.30;1.00
17918;DHT22;9084;50.956;3.106;2024-03-23T14:52:20;11.30;1.00
17918;DHT22;9084;50.956;3.106;2024-03-23T14:54:47;11.30;1.00
17918;DHT22;9084;50.956;3.106;2024-03-23T14:57:13;11.40;1.00
17918;DHT22;9084;50.956;3.106;2024-03-23T14:59:39;11.50;1.00
17918;DHT22;9084;50.956;3.106;2024-03-23T15:02:06;11.50;1.00
17918;DHT22;9084;50.956;3.106;2024-03-23T15:04:34;11.50;1.00
17918;DHT22;9084;50.956;3.106;2024-03-23T15:07:00;11.50;1.00
17918;DHT22;9084;50.956;3.106;2024-03-23T15:09:26;11.50;99.90
17918;DHT22;9084;50.956;3.106;2024-03-23T15:11:52;11.60;99.90
17918;DHT22;9084;50.956;3.106;2024-03-23T15:14:21;11.60;99.90
17918;DHT22;9084;50.956;3.106;2024-03-23T15:16:46;11.70;99.90
17918;DHT22;9084;50.956;3.106;2024-03-23T15:19:14;11.70;99.90
17918;DHT22;9084;50.956;3.106;2024-03-23T15:21:40;11.80;1.00
17918;DHT22;9084;50.956;3.106;2024-03-23T15:24:07;11.90;1.00
17918;DHT22;9084;50.956;3.106;2024-03-23T15:26:38;11.90;1.00
17918;DHT22;9084;50.956;3.106;2024-03-23T15:29:04;11.80;1.00
17918;DHT22;9084;50.956;3.106;2024-03-23T15:31:38;11.70;99.90
17918;DHT22;9084;50.956;3.106;2024-03-23T15:34:03;11.70;1.00
17918;DHT22;9084;50.956;3.106;2024-03-23T15:36:37;11.60;1.00
17918;DHT22;9084;50.956;3.106;2024-03-23T15:39:05;11.50;99.90
17918;DHT22;9084;50.956;3.106;2024-03-23T15:41:30;11.40;99.90
17918;DHT22;9084;50.956;3.106;2024-03-23T15:43:56;11.40;99.90
17918;DHT22;9084;50.956;3.106;2024-03-23T15:46:24;11.40;99.90
17918;DHT22;9084;50.956;3.106;2024-03-23T15:48:52;11.40;99.90
17918;DHT22;9084;50.956;3.106;2024-03-23T15:51:20;11.40;99.90
17918;DHT22;9084;50.956;3.106;2024-03-23T15:53:45;11.50;99.90
17918;DHT22;9084;50.956;3.106;2024-03-23T15:56:12;11.60;99.90
17918;DHT22;9084;50.956;3.106;2024-03-23T15:58:42;11.70;1.00
17918;DHT22;9084;50.956;3.106;2024-03-23T16:01:08;11.80;1.00
17918;DHT22;9084;50.956;3.106;2024-03-23T16:03:37;11.90;1.00
17918;DHT22;9084;50.956;3.106;2024-03-23T16:06:04;11.90;1.00
17918;DHT22;9084;50.956;3.106;2024-03-23T16:08:32;11.80;1.00
17918;DHT22;9084;50.956;3.106;2024-03-23T16:11:03;11.70;1.00
17918;DHT22;9084;50.956;3.106;2024-03-23T16:13:29;11.60;1.00
17918;DHT22;9084;50.956;3.106;2024-03-23T16:15:59;11.50;1.00
17918;DHT22;9084;50.956;3.106;2024-03-23T16:18:25;11.40;1.00
17918;DHT22;9084;50.956;3.106;2024-03-23T16:21:00;11.30;99.90
17918;DHT22;9084;50.956;3.106;2024-03-23T16:23:29;11.30;99.90
17918;DHT22;9084;50.956;3.106;2024-03-23T16:25:56;11.30;99.90
17918;DHT22;9084;50.956;3.106;2024-03-23T16:28:32;11.30;99.90
17918;DHT22;9084;50.956;3.106;2024-03-23T16:31:03;11.30;1.00
17918;DHT22;9084;50.956;3.106;2024-03-23T16:33:30;11.20;1.00
17918;DHT22;9084;50.956;3.106;2024-03-23T16:36:06;11.10;99.90
17918;DHT22;9084;50.956;3.106;2024-03-23T16:38:33;10.90;1.00
17918;DHT22;9084;50.956;3.106;2024-03-23T16:43:34;10.50;99.90
17918;DHT22;9084;50.956;3.106;2024-03-23T16:46:01;10.30;1.00
17918;DHT22;9084;50.956;3.106;2024-03-23T16:48:30;10.20;99.90
17918;DHT22;9084;50.956;3.106;2024-03-23T16:50:57;10.10;1.00
17918;DHT22;9084;50.956;3.106;2024-03-23T16:53:23;10.00;99.90
17918;DHT22;9084;50.956;3.106;2024-03-23T16:55:58;9.90;1.00
17918;DHT22;9084;50.956;3.106;2024-03-23T16:58:28;9.90;1.00
17918;DHT22;9084;50.956;3.106;2024-03-23T17:01:11;9.80;19.40
17918;DHT22;9084;50.956;3.106;2024-03-23T17:03:46;9.80;99.90
17918;DHT22;9084;50.956;3.106;2024-03-23T17:06:13;9.80;99.90
17918;DHT22;9084;50.956;3.106;2024-03-23T17:08:40;9.70;1.00
17918;DHT22;9084;50.956;3.106;2024-03-23T17:11:06;9.70;1.00
17918;DHT22;9084;50.956;3.106;2024-03-23T17:13:32;9.70;1.00